sensor_id;sensor_type;location;lat;lon;timestamp;pressure;altitude;pressure_sealevel;temperature;humidity
46347;BME280;32057;47.830;19.046;2023-03-21T00:00:22;100244.88;;;4.41;100.00
46347;BME280;32057;47.830;19.046;2023-03-21T00:02:48;100245.69;;;4.40;100.00
46347;BME280;32057;47.830;19.046;2023-03-21T00:05:13;100241.06;;;4.33;100.00
46347;BME280;32057;47.830;19.046;2023-03-21T00:07:39;100247.19;;;4.35;100.00
46347;BME280;32057;47.830;19.046;2023-03-21T00:10:05;100242.19;;;4.38;100.00
46347;BME280;32057;47.830;19.046;2023-03-21T00:12:31;100240.63;;;4.42;100.00
46347;BME280;32057;47.830;19.046;2023-03-21T00:14:57;100241.34;;;4.39;100.00
46347;BME280;32057;47.830;19.046;2023-03-21T00:17:29;100234.22;;;4.53;100.00
46347;BME280;32057;47.830;19.046;2023-03-21T00:19:59;100238.06;;;4.63;100.00
46347;BME280;32057;47.830;19.046;2023-03-21T00:22:26;100237.63;;;4.52;100.00
46347;BME280;32057;47.830;19.046;2023-03-21T00:24:55;100238.13;;;4.64;100.00
46347;BME280;32057;47.830;19.046;2023-03-21T00:27:21;100238.25;;;4.67;100.00
46347;BME280;32057;47.830;19.046;2023-03-21T00:29:47;100235.69;;;4.67;100.00
46347;BME280;32057;47.830;19.046;2023-03-21T00:32:17;100236.84;;;4.54;100.00
46347;BME280;32057;47.830;19.046;2023-03-21T00:34:43;100238.63;;;4.55;100.00
46347;BME280;32057;47.830;19.046;2023-03-21T00:37:09;100236.78;;;4.53;100.00
46347;BME280;32057;47.830;19.046;2023-03-21T00:39:36;100229.03;;;4.51;100.00
46347;BME280;32057;47.830;19.046;2023-03-21T00:42:02;100227.31;;;4.52;100.00
46347;BME280;32057;47.830;19.046;2023-03-21T00:44:28;100225.59;;;4.52;100.00
46347;BME280;32057;47.830;19.046;2023-03-21T00:46:53;100224.25;;;4.41;100.00
46347;BME280;32057;47.830;19.046;2023-03-21T00:49:19;100220.28;;;4.28;100.00
46347;BME280;32057;47.830;19.046;2023-03-21T00:51:45;100225.97;;;4.21;100.00
46347;BME280;32057;47.830;19.046;2023-03-21T00:54:11;100224.06;;;4.17;100.00
46347;BME280;32057;47.830;19.046;2023-03-21T00:56:37;100219.66;;;4.14;100.00
46347;BME280;32057;47.830;19.046;2023-03-21T00:59:02;100222.50;;;4.01;100.00
46347;BME280;32057;47.830;19.046;2023-03-21T01:01:28;100222.94;;;4.10;100.00
46347;BME280;32057;47.830;19.046;2023-03-21T01:04:00;100212.03;;;4.16;100.00
46347;BME280;32057;47.830;19.046;2023-03-21T01:06:38;100214.03;;;4.23;100.00
46347;BME280;32057;47.830;19.046;2023-03-21T01:09:04;100212.31;;;4.43;100.00
46347;BME280;32057;47.830;19.046;2023-03-21T01:11:30;100203.13;;;5.77;100.00
46347;BME280;32057;47.830;19.046;2023-03-21T01:13:56;100199.94;;;6.31;100.00
46347;BME280;32057;47.830;19.046;2023-03-21T01:16:22;100195.50;;;6.78;100.00
46347;BME280;32057;47.830;19.046;2023-03-21T01:18:48;100195.88;;;7.16;100.00
46347;BME280;32057;47.830;19.046;2023-03-21T01:21:13;100199.00;;;7.33;100.00
46347;BME280;32057;47.830;19.046;2023-03-21T01:23:40;100185.81;;;7.53;100.00
46347;BME280;32057;47.830;19.046;2023-03-21T01:26:08;100194.38;;;7.52;100.00
46347;BME280;32057;47.830;19.046;2023-03-21T01:28:35;100193.34;;;7.47;100.00
46347;BME280;32057;47.830;19.046;2023-03-21T01:31:02;100193.28;;;7.44;100.00
46347;BME280;32057;47.830;19.046;2023-03-21T01:33:29;100185.38;;;7.68;100.00
46347;BME280;32057;47.830;19.046;2023-03-21T01:35:55;100186.34;;;7.71;100.00
46347;BME280;32057;47.830;19.046;2023-03-21T01:38:20;100183.22;;;7.83;100.00
46347;BME280;32057;47.830;19.046;2023-03-21T01:40:47;100190.16;;;7.84;100.00
46347;BME280;32057;47.830;19.046;2023-03-21T01:43:25;100183.25;;;7.85;100.00
46347;BME280;32057;47.830;19.046;2023-03-21T01:46:27;100186.69;;;7.84;100.00
46347;BME280;32057;47.830;19.046;2023-03-21T01:49:15;100182.22;;;7.78;100.00
46347;BME280;32057;47.830;19.046;2023-03-21T01:51:52;100184.22;;;7.88;100.00
46347;BME280;32057;47.830;19.046;2023-03-21T01:54:28;100185.31;;;7.95;100.00
46347;BME280;32057;47.830;19.046;2023-03-21T01:56:58;100180.75;;;7.88;100.00
46347;BME280;32057;47.830;19.046;2023-03-21T01:59:27;100184.09;;;7.84;100.00
46347;BME280;32057;47.830;19.046;2023-03-21T02:01:55;100179.56;;;7.76;100.00
46347;BME280;32057;47.830;19.046;2023-03-21T02:04:22;100185.53;;;7.74;100.00
46347;BME280;32057;47.830;19.046;2023-03-21T02:07:06;100176.84;;;7.72;100.00
46347;BME280;32057;47.830;19.046;2023-03-21T02:09:33;100173.06;;;7.61;100.00
46347;BME280;32057;47.830;19.046;2023-03-21T02:12:00;100177.38;;;7.60;100.00
46347;BME280;32057;47.830;19.046;2023-03-21T02:14:26;100177.25;;;7.28;100.00
46347;BME280;32057;47.830;19.046;2023-03-21T02:27:46;100187.16;;;6.36;100.00
46347;BME280;32057;47.830;19.046;2023-03-21T02:30:26;100180.78;;;6.26;100.00
46347;BME280;32057;47.830;19.046;2023-03-21T02:38:26;100177.44;;;7.06;100.00
46347;BME280;32057;47.830;19.046;2023-03-21T02:46:24;100177.31;;;7.03;100.00
46347;BME280;32057;47.830;19.046;2023-03-21T02:51:21;100176.91;;;6.63;100.00
46347;BME280;32057;47.830;19.046;2023-03-21T02:54:14;100186.63;;;6.21;100.00
46347;BME280;32057;47.830;19.046;2023-03-21T02:56:41;100189.25;;;5.98;100.00
46347;BME280;32057;47.830;19.046;2023-03-21T02:59:09;100184.19;;;5.78;100.00
46347;BME280;32057;47.830;19.046;2023-03-21T03:01:34;100181.63;;;5.78;100.00
46347;BME280;32057;47.830;19.046;2023-03-21T03:04:00;100188.53;;;5.55;100.00
46347;BME280;32057;47.830;19.046;2023-03-21T03:06:40;100189.16;;;5.50;100.00
46347;BME280;32057;47.830;19.046;2023-03-21T03:12:01;100177.91;;;5.48;100.00
46347;BME280;32057;47.830;19.046;2023-03-21T03:25:38;100183.63;;;5.86;100.00
46347;BME280;32057;47.830;19.046;2023-03-21T03:28:07;100191.25;;;6.05;100.00
46347;BME280;32057;47.830;19.046;2023-03-21T03:30:35;100187.63;;;6.00;100.00
46347;BME280;32057;47.830;19.046;2023-03-21T03:33:01;100193.31;;;5.91;100.00
46347;BME280;32057;47.830;19.046;2023-03-21T03:35:30;100188.66;;;5.83;100.00
46347;BME280;32057;47.830;19.046;2023-03-21T03:37:59;100190.31;;;5.81;100.00
46347;BME280;32057;47.830;19.046;2023-03-21T03:40:35;100180.97;;;5.84;100.00
46347;BME280;32057;47.830;19.046;2023-03-21T03:43:10;100183.84;;;5.92;100.00
46347;BME280;32057;47.830;19.046;2023-03-21T03:45:48;100181.38;;;5.95;100.00
46347;BME280;32057;47.830;19.046;2023-03-21T03:48:29;100180.97;;;5.84;100.00
46347;BME280;32057;47.830;19.046;2023-03-21T03:51:00;100184.31;;;5.82;100.00
46347;BME280;32057;47.830;19.046;2023-03-21T03:53:35;100179.63;;;5.94;100.00
46347;BME280;32057;47.830;19.046;2023-03-21T03:56:03;100179.50;;;6.13;100.00
46347;BME280;32057;47.830;19.046;2023-03-21T03:58:31;100164.91;;;6.65;100.00
46347;BME280;32057;47.830;19.046;2023-03-21T04:00:57;100170.03;;;6.64;100.00
46347;BME280;32057;47.830;19.046;2023-03-21T04:03:23;100176.13;;;6.66;100.00
46347;BME280;32057;47.830;19.046;2023-03-21T04:05:48;100169.91;;;6.61;100.00
46347;BME280;32057;47.830;19.046;2023-03-21T04:08:15;100173.00;;;6.50;100.00
46347;BME280;32057;47.830;19.046;2023-03-21T04:10:42;100167.69;;;6.46;100.00
46347;BME280;32057;47.830;19.046;2023-03-21T04:13:07;100166.63;;;6.39;100.00
46347;BME280;32057;47.830;19.046;2023-03-21T04:15:33;100175.28;;;6.41;100.00
46347;BME280;32057;47.830;19.046;2023-03-21T04:17:59;100164.84;;;6.38;100.00
46347;BME280;32057;47.830;19.046;2023-03-21T04:20:25;100173.72;;;6.46;100.00
46347;BME280;32057;47.830;19.046;2023-03-21T04:22:50;100167.78;;;6.49;100.00
46347;BME280;32057;47.830;19.046;2023-03-21T04:25:16;100163.97;;;6.37;100.00
46347;BME280;32057;47.830;19.046;2023-03-21T04:27:42;100161.69;;;6.21;100.00
46347;BME280;32057;47.830;19.046;2023-03-21T04:30:11;100163.22;;;6.16;100.00
46347;BME280;32057;47.830;19.046;2023-03-21T04:32:37;100162.66;;;6.25;100.00
46347;BME280;32057;47.830;19.046;2023-03-21T04:35:05;100164.84;;;6.38;100.00
46347;BME280;32057;47.830;19.046;2023-03-21T04:37:33;100160.00;;;6.47;100.00
46347;BME280;32057;47.830;19.046;2023-03-21T04:39:59;100160.47;;;6.37;100.00
46347;BME280;32057;47.830;19.046;2023-03-21T04:42:25;100160.91;;;6.24;100.00
46347;BME280;32057;47.830;19.046;2023-03-21T04:44:50;100171.13;;;6.21;100.00
46347;BME280;32057;47.830;19.046;2023-03-21T04:47:16;100169.03;;;6.10;100.00
46347;BME280;32057;47.830;19.046;2023-03-21T04:49:45;100170.09;;;5.93;100.00
46347;BME280;32057;47.830;19.046;2023-03-21T04:52:12;100169.78;;;5.84;100.00
46347;BME280;32057;47.830;19.046;2023-03-21T04:54:38;100171.00;;;5.93;100.00
46347;BME280;32057;47.830;19.046;2023-03-21T04:57:03;100172.34;;;6.06;100.00
46347;BME280;32057;47.830;19.046;2023-03-21T04:59:29;100183.38;;;6.02;100.00
46347;BME280;32057;47.830;19.046;2023-03-21T05:01:54;100182.78;;;6.09;100.00
46347;BME280;32057;47.830;19.046;2023-03-21T05:04:21;100184.44;;;6.07;100.00
46347;BME280;32057;47.830;19.046;2023-03-21T05:06:46;100192.44;;;6.15;100.00
46347;BME280;32057;47.830;19.046;2023-03-21T05:09:12;100190.19;;;6.24;100.00
46347;BME280;32057;47.830;19.046;2023-03-21T05:11:39;100185.31;;;6.32;100.00
46347;BME280;32057;47.830;19.046;2023-03-21T05:14:07;100191.63;;;6.40;100.00
46347;BME280;32057;47.830;19.046;2023-03-21T05:16:34;100194.31;;;6.43;100.00
46347;BME280;32057;47.830;19.046;2023-03-21T05:19:01;100201.13;;;6.41;100.00
46347;BME280;32057;47.830;19.046;2023-03-21T05:21:30;100197.56;;;6.37;100.00
46347;BME280;32057;47.830;19.046;2023-03-21T05:24:06;100200.88;;;6.33;100.00
46347;BME280;32057;47.830;19.046;2023-03-21T05:26:39;100192.47;;;6.39;100.00
46347;BME280;32057;47.830;19.046;2023-03-21T05:29:05;100193.69;;;6.76;100.00
46347;BME280;32057;47.830;19.046;2023-03-21T05:31:31;100190.84;;;6.94;100.00
46347;BME280;32057;47.830;19.046;2023-03-21T05:33:56;100188.66;;;7.33;100.00
46347;BME280;32057;47.830;19.046;2023-03-21T05:36:22;100193.09;;;7.66;100.00
46347;BME280;32057;47.830;19.046;2023-03-21T05:38:47;100189.22;;;7.82;100.00
46347;BME280;32057;47.830;19.046;2023-03-21T05:41:13;100181.84;;;7.96;100.00
46347;BME280;32057;47.830;19.046;2023-03-21T05:43:39;100190.72;;;8.04;100.00
46347;BME280;32057;47.830;19.046;2023-03-21T05:46:05;100191.78;;;8.11;100.00
46347;BME280;32057;47.830;19.046;2023-03-21T05:48:31;100191.22;;;8.23;100.00
46347;BME280;32057;47.830;19.046;2023-03-21T05:50:56;100183.72;;;8.32;100.00
46347;BME280;32057;47.830;19.046;2023-03-21T05:53:21;100183.06;;;8.39;100.00
46347;BME280;32057;47.830;19.046;2023-03-21T05:55:47;100183.06;;;8.41;100.00
46347;BME280;32057;47.830;19.046;2023-03-21T05:58:12;100178.13;;;8.48;100.00
46347;BME280;32057;47.830;19.046;2023-03-21T06:00:38;100188.66;;;8.54;100.00
46347;BME280;32057;47.830;19.046;2023-03-21T06:03:03;100188.00;;;8.62;100.00
46347;BME280;32057;47.830;19.046;2023-03-21T06:05:29;100191.59;;;8.68;100.00
46347;BME280;32057;47.830;19.046;2023-03-21T06:07:54;100181.59;;;8.82;100.00
46347;BME280;32057;47.830;19.046;2023-03-21T06:10:20;100180.91;;;8.89;100.00
46347;BME280;32057;47.830;19.046;2023-03-21T06:12:46;100189.91;;;9.04;100.00
46347;BME280;32057;47.830;19.046;2023-03-21T06:15:11;100186.00;;;9.21;100.00
46347;BME280;32057;47.830;19.046;2023-03-21T06:17:37;100192.47;;;9.39;100.00
46347;BME280;32057;47.830;19.046;2023-03-21T06:20:04;100188.16;;;9.80;100.00
46347;BME280;32057;47.830;19.046;2023-03-21T06:22:32;100192.81;;;9.95;100.00
46347;BME280;32057;47.830;19.046;2023-03-21T06:24:58;100194.00;;;10.12;100.00
46347;BME280;32057;47.830;19.046;2023-03-21T06:27:23;100194.28;;;10.25;100.00
46347;BME280;32057;47.830;19.046;2023-03-21T06:29:49;100190.28;;;10.41;100.00
46347;BME280;32057;47.830;19.046;2023-03-21T06:32:14;100196.69;;;10.60;100.00
46347;BME280;32057;47.830;19.046;2023-03-21T06:34:40;100190.84;;;10.73;100.00
46347;BME280;32057;47.830;19.046;2023-03-21T06:37:06;100193.84;;;10.94;100.00
46347;BME280;32057;47.830;19.046;2023-03-21T06:39:31;100195.03;;;11.15;100.00
46347;BME280;32057;47.830;19.046;2023-03-21T06:41:57;100188.31;;;11.31;100.00
46347;BME280;32057;47.830;19.046;2023-03-21T06:44:23;100193.78;;;11.46;99.69
46347;BME280;32057;47.830;19.046;2023-03-21T06:46:50;100185.16;;;11.53;98.25
46347;BME280;32057;47.830;19.046;2023-03-21T06:49:16;100184.50;;;11.68;97.74
46347;BME280;32057;47.830;19.046;2023-03-21T06:51:41;100184.50;;;11.70;95.64
46347;BME280;32057;47.830;19.046;2023-03-21T06:54:07;100183.09;;;11.92;95.71
46347;BME280;32057;47.830;19.046;2023-03-21T06:56:33;100191.09;;;12.04;95.44
46347;BME280;32057;47.830;19.046;2023-03-21T06:58:58;100181.56;;;12.09;94.79
46347;BME280;32057;47.830;19.046;2023-03-21T07:01:24;100186.03;;;12.20;93.54
46347;BME280;32057;47.830;19.046;2023-03-21T07:03:52;100185.38;;;12.39;93.65
46347;BME280;32057;47.830;19.046;2023-03-21T07:06:17;100184.66;;;12.54;91.38
46347;BME280;32057;47.830;19.046;2023-03-21T07:08:43;100176.94;;;12.65;91.15
46347;BME280;32057;47.830;19.046;2023-03-21T07:11:09;100176.94;;;12.68;88.62
46347;BME280;32057;47.830;19.046;2023-03-21T07:13:34;100173.69;;;12.93;88.44
46347;BME280;32057;47.830;19.046;2023-03-21T07:16:00;100179.19;;;13.24;87.26
46347;BME280;32057;47.830;19.046;2023-03-21T07:18:26;100176.72;;;13.47;86.80
46347;BME280;32057;47.830;19.046;2023-03-21T07:20:51;100178.59;;;13.67;84.33
46347;BME280;32057;47.830;19.046;2023-03-21T07:23:22;100179.56;;;13.89;85.19
46347;BME280;32057;47.830;19.046;2023-03-21T07:25:49;100170.06;;;14.14;83.76
46347;BME280;32057;47.830;19.046;2023-03-21T07:28:15;100174.41;;;14.07;80.17
46347;BME280;32057;47.830;19.046;2023-03-21T07:30:42;100173.59;;;14.27;80.18
46347;BME280;32057;47.830;19.046;2023-03-21T07:33:07;100181.47;;;14.34;78.23
46347;BME280;32057;47.830;19.046;2023-03-21T07:35:33;100181.50;;;14.42;79.78
46347;BME280;32057;47.830;19.046;2023-03-21T07:38:00;100186.69;;;14.30;77.37
46347;BME280;32057;47.830;19.046;2023-03-21T07:40:26;100182.25;;;14.03;76.77
46347;BME280;32057;47.830;19.046;2023-03-21T07:42:51;100188.25;;;13.85;77.59
46347;BME280;32057;47.830;19.046;2023-03-21T07:45:17;100189.06;;;13.70;78.87
46347;BME280;32057;47.830;19.046;2023-03-21T07:47:45;100192.50;;;13.63;79.47
46347;BME280;32057;47.830;19.046;2023-03-21T07:50:11;100200.34;;;13.61;79.58
46347;BME280;32057;47.830;19.046;2023-03-21T07:52:37;100200.22;;;13.43;80.01
46347;BME280;32057;47.830;19.046;2023-03-21T07:55:02;100200.19;;;13.37;80.76
46347;BME280;32057;47.830;19.046;2023-03-21T07:57:28;100201.09;;;13.40;80.97
46347;BME280;32057;47.830;19.046;2023-03-21T07:59:53;100213.28;;;13.38;81.27
46347;BME280;32057;47.830;19.046;2023-03-21T08:02:19;100210.53;;;13.27;80.49
46347;BME280;32057;47.830;19.046;2023-03-21T08:04:44;100206.97;;;13.18;81.06
46347;BME280;32057;47.830;19.046;2023-03-21T08:07:10;100206.19;;;13.28;81.29
46347;BME280;32057;47.830;19.046;2023-03-21T08:09:36;100207.91;;;13.27;81.92
46347;BME280;32057;47.830;19.046;2023-03-21T08:12:02;100197.47;;;13.24;81.82
46347;BME280;32057;47.830;19.046;2023-03-21T08:14:28;100196.66;;;13.31;81.42
46347;BME280;32057;47.830;19.046;2023-03-21T08:16:53;100200.22;;;13.43;81.07
46347;BME280;32057;47.830;19.046;2023-03-21T08:19:19;100200.34;;;13.58;81.63
46347;BME280;32057;47.830;19.046;2023-03-21T08:21:47;100196.88;;;13.65;81.47
46347;BME280;32057;47.830;19.046;2023-03-21T08:24:14;100198.63;;;13.69;79.70
46347;BME280;32057;47.830;19.046;2023-03-21T08:26:39;100199.53;;;13.71;78.89
46347;BME280;32057;47.830;19.046;2023-03-21T08:29:05;100192.59;;;13.78;80.78
46347;BME280;32057;47.830;19.046;2023-03-21T08:31:31;100194.38;;;13.82;80.13
46347;BME280;32057;47.830;19.046;2023-03-21T08:33:56;100201.34;;;13.89;80.43
46347;BME280;32057;47.830;19.046;2023-03-21T08:36:22;100201.34;;;13.88;80.22
46347;BME280;32057;47.830;19.046;2023-03-21T08:38:47;100198.72;;;13.88;78.62
46347;BME280;32057;47.830;19.046;2023-03-21T08:41:17;100194.31;;;13.73;78.65
46347;BME280;32057;47.830;19.046;2023-03-21T08:43:44;100197.75;;;13.64;79.23
46347;BME280;32057;47.830;19.046;2023-03-21T08:46:10;100206.41;;;13.52;79.44
46347;BME280;32057;47.830;19.046;2023-03-21T08:48:35;100205.50;;;13.49;79.80
46347;BME280;32057;47.830;19.046;2023-03-21T08:51:03;100200.19;;;13.37;80.00
46347;BME280;32057;47.830;19.046;2023-03-21T08:53:29;100198.34;;;13.28;80.02
46347;BME280;32057;47.830;19.046;2023-03-21T08:55:54;100196.41;;;13.01;81.54
46347;BME280;32057;47.830;19.046;2023-03-21T08:58:19;100205.03;;;12.93;81.49
46347;BME280;32057;47.830;19.046;2023-03-21T09:00:45;100203.34;;;12.99;82.75
46347;BME280;32057;47.830;19.046;2023-03-21T09:03:10;100205.09;;;13.00;83.84
46347;BME280;32057;47.830;19.046;2023-03-21T09:05:36;100205.22;;;13.15;82.49
46347;BME280;32057;47.830;19.046;2023-03-21T09:08:02;100201.78;;;13.19;82.27
46347;BME280;32057;47.830;19.046;2023-03-21T09:10:28;100205.44;;;13.40;82.67
46347;BME280;32057;47.830;19.046;2023-03-21T09:12:54;100201.19;;;13.57;81.47
46347;BME280;32057;47.830;19.046;2023-03-21T09:15:23;100203.81;;;13.57;79.81
46347;BME280;32057;47.830;19.046;2023-03-21T09:17:49;100209.06;;;13.60;80.47
46347;BME280;32057;47.830;19.046;2023-03-21T09:20:21;100202.22;;;13.85;81.30
46347;BME280;32057;47.830;19.046;2023-03-21T09:22:50;100195.38;;;14.17;80.35
46347;BME280;32057;47.830;19.046;2023-03-21T09:25:17;100201.50;;;14.23;78.29
46347;BME280;32057;47.830;19.046;2023-03-21T09:27:44;100191.94;;;14.34;77.11
46347;BME280;32057;47.830;19.046;2023-03-21T09:30:11;100185.03;;;14.63;79.71
46347;BME280;32057;47.830;19.046;2023-03-21T09:32:37;100183.31;;;14.83;76.28
46347;BME280;32057;47.830;19.046;2023-03-21T09:35:02;100177.19;;;14.75;75.04
46347;BME280;32057;47.830;19.046;2023-03-21T09:37:30;100181.56;;;14.91;76.60
46347;BME280;32057;47.830;19.046;2023-03-21T09:39:57;100173.69;;;15.19;77.56
46347;BME280;32057;47.830;19.046;2023-03-21T09:47:44;100163.97;;;15.73;71.12
46347;BME280;32057;47.830;19.046;2023-03-21T09:50:24;100166.59;;;15.86;72.42
46347;BME280;32057;47.830;19.046;2023-03-21T09:52:59;100164.81;;;15.89;71.19
46347;BME280;32057;47.830;19.046;2023-03-21T09:55:33;100168.25;;;16.01;68.56
46347;BME280;32057;47.830;19.046;2023-03-21T10:00:48;100160.16;;;16.39;66.13
46347;BME280;32057;47.830;19.046;2023-03-21T10:03:24;100157.53;;;16.44;64.08
46347;BME280;32057;47.830;19.046;2023-03-21T10:05:53;100148.66;;;16.59;63.78
46347;BME280;32057;47.830;19.046;2023-03-21T10:08:31;100158.31;;;16.57;64.04
46347;BME280;32057;47.830;19.046;2023-03-21T10:11:09;100153.06;;;16.60;64.10
46347;BME280;32057;47.830;19.046;2023-03-21T10:13:42;100150.44;;;16.60;63.01
46347;BME280;32057;47.830;19.046;2023-03-21T10:16:13;100153.06;;;16.60;57.22
46347;BME280;32057;47.830;19.046;2023-03-21T10:18:40;100155.75;;;16.49;57.05
46347;BME280;32057;47.830;19.046;2023-03-21T10:21:06;100149.66;;;16.42;56.67
46347;BME280;32057;47.830;19.046;2023-03-21T10:23:36;100144.31;;;16.58;56.90
46347;BME280;32057;47.830;19.046;2023-03-21T10:26:04;100151.09;;;16.89;55.57
46347;BME280;32057;47.830;19.046;2023-03-21T10:28:34;100155.47;;;16.90;55.08
46347;BME280;32057;47.830;19.046;2023-03-21T10:31:04;100149.53;;;16.61;53.91
46347;BME280;32057;47.830;19.046;2023-03-21T10:33:34;100145.91;;;16.82;55.78
46347;BME280;32057;47.830;19.046;2023-03-21T10:36:11;100146.66;;;16.96;55.71
46347;BME280;32057;47.830;19.046;2023-03-21T10:38:44;100150.91;;;17.11;54.73
46347;BME280;32057;47.830;19.046;2023-03-21T10:41:10;100147.53;;;16.97;54.59
46347;BME280;32057;47.830;19.046;2023-03-21T10:43:38;100140.44;;;17.08;53.73
46347;BME280;32057;47.830;19.046;2023-03-21T10:48:39;100146.28;;;17.33;55.04
46347;BME280;32057;47.830;19.046;2023-03-21T10:51:07;100142.59;;;17.51;55.62
46347;BME280;32057;47.830;19.046;2023-03-21T10:53:48;100142.00;;;17.26;54.42
46347;BME280;32057;47.830;19.046;2023-03-21T10:56:15;100154.25;;;17.25;53.12
46347;BME280;32057;47.830;19.046;2023-03-21T10:58:43;100143.72;;;17.28;52.68
46347;BME280;32057;47.830;19.046;2023-03-21T11:01:13;100141.94;;;17.30;51.22
46347;BME280;32057;47.830;19.046;2023-03-21T11:03:44;100130.34;;;17.50;51.38
46347;BME280;32057;47.830;19.046;2023-03-21T11:06:28;100134.81;;;17.42;52.18
46347;BME280;32057;47.830;19.046;2023-03-21T11:09:00;100129.84;;;17.14;49.69
46347;BME280;32057;47.830;19.046;2023-03-21T11:12:08;100122.09;;;16.99;51.08
46347;BME280;32057;47.830;19.046;2023-03-21T11:14:38;100124.72;;;17.02;52.83
46347;BME280;32057;47.830;19.046;2023-03-21T11:22:27;100110.97;;;16.63;53.97
46347;BME280;32057;47.830;19.046;2023-03-21T11:24:59;100104.91;;;16.58;54.42
46347;BME280;32057;47.830;19.046;2023-03-21T11:27:30;100104.16;;;16.39;52.46
46347;BME280;32057;47.830;19.046;2023-03-21T11:29:57;100105.16;;;16.19;51.52
46347;BME280;32057;47.830;19.046;2023-03-21T11:32:25;100093.69;;;16.34;51.67
46347;BME280;32057;47.830;19.046;2023-03-21T11:34:55;100093.53;;;16.56;52.15
46347;BME280;32057;47.830;19.046;2023-03-21T11:42:41;100079.41;;;16.69;49.89
46347;BME280;32057;47.830;19.046;2023-03-21T11:45:16;100076.69;;;16.83;49.54
46347;BME280;32057;47.830;19.046;2023-03-21T11:47:43;100074.94;;;16.80;49.90
46347;BME280;32057;47.830;19.046;2023-03-21T11:52:49;100059.00;;;17.00;50.20
46347;BME280;32057;47.830;19.046;2023-03-21T11:55:40;100051.19;;;16.92;50.57
46347;BME280;32057;47.830;19.046;2023-03-21T12:01:43;100049.81;;;16.51;50.55
46347;BME280;32057;47.830;19.046;2023-03-21T12:21:11;100034.03;;;17.37;49.75
46347;BME280;32057;47.830;19.046;2023-03-21T12:26:27;100034.81;;;17.45;49.94
46347;BME280;32057;47.830;19.046;2023-03-21T12:37:04;100030.66;;;17.27;47.34
46347;BME280;32057;47.830;19.046;2023-03-21T12:39:35;100028.94;;;17.24;46.44
46347;BME280;32057;47.830;19.046;2023-03-21T12:42:12;100039.53;;;17.17;46.92
46347;BME280;32057;47.830;19.046;2023-03-21T12:45:19;100029.81;;;16.30;48.44
46347;BME280;32057;47.830;19.046;2023-03-21T12:47:53;100028.22;;;16.12;47.24
46347;BME280;32057;47.830;19.046;2023-03-21T12:50:30;100021.38;;;15.85;48.74
46347;BME280;32057;47.830;19.046;2023-03-21T12:53:13;100017.97;;;15.63;48.91
46347;BME280;32057;47.830;19.046;2023-03-21T12:55:42;100013.31;;;16.15;49.90
46347;BME280;32057;47.830;19.046;2023-03-21T12:58:17;100012.13;;;16.56;48.62
46347;BME280;32057;47.830;19.046;2023-03-21T13:00:47;100011.03;;;16.75;47.17
46347;BME280;32057;47.830;19.046;2023-03-21T13:03:23;99998.59;;;16.96;47.50
46347;BME280;32057;47.830;19.046;2023-03-21T13:05:55;99988.81;;;17.10;47.12
46347;BME280;32057;47.830;19.046;2023-03-21T13:10:57;99978.91;;;17.29;46.77
46347;BME280;32057;47.830;19.046;2023-03-21T13:13:45;99979.56;;;17.45;46.00
46347;BME280;32057;47.830;19.046;2023-03-21T13:19:12;99988.44;;;16.59;47.41
46347;BME280;32057;47.830;19.046;2023-03-21T13:21:55;99983.31;;;16.46;47.12
46347;BME280;32057;47.830;19.046;2023-03-21T13:24:31;99981.47;;;16.55;48.19
46347;BME280;32057;47.830;19.046;2023-03-21T13:27:46;99979.63;;;16.66;47.98
46347;BME280;32057;47.830;19.046;2023-03-21T13:29:49;99973.34;;;16.82;48.76
46347;BME280;32057;47.830;19.046;2023-03-21T13:34:59;99976.50;;;17.10;49.28
46347;BME280;32057;47.830;19.046;2023-03-21T13:37:31;99978.38;;;16.99;48.38
46347;BME280;32057;47.830;19.046;2023-03-21T13:40:00;99990.38;;;16.38;48.99
46347;BME280;32057;47.830;19.046;2023-03-21T13:42:31;99982.50;;;16.38;49.69
46347;BME280;32057;47.830;19.046;2023-03-21T13:45:06;99983.03;;;16.71;50.01
46347;BME280;32057;47.830;19.046;2023-03-21T13:53:17;99974.88;;;17.02;47.13
46347;BME280;32057;47.830;19.046;2023-03-21T13:55:57;99972.19;;;17.06;46.48
46347;BME280;32057;47.830;19.046;2023-03-21T13:58:36;99971.31;;;17.07;44.94
46347;BME280;32057;47.830;19.046;2023-03-21T14:01:50;99965.91;;;17.17;44.20
46347;BME280;32057;47.830;19.046;2023-03-21T14:04:25;99962.63;;;16.99;43.63
46347;BME280;32057;47.830;19.046;2023-03-21T14:09:30;99959.97;;;17.04;44.26
46347;BME280;32057;47.830;19.046;2023-03-21T14:11:59;99954.78;;;16.96;43.05
46347;BME280;32057;47.830;19.046;2023-03-21T14:14:31;99949.66;;;16.79;44.20
46347;BME280;32057;47.830;19.046;2023-03-21T14:16:58;99944.38;;;16.85;43.36
46347;BME280;32057;47.830;19.046;2023-03-21T14:19:30;99950.47;;;16.90;42.75
46347;BME280;32057;47.830;19.046;2023-03-21T14:21:56;99946.06;;;16.92;44.06
46347;BME280;32057;47.830;19.046;2023-03-21T14:24:22;99937.22;;;17.00;43.89
46347;BME280;32057;47.830;19.046;2023-03-21T14:26:50;99936.31;;;17.04;44.08
46347;BME280;32057;47.830;19.046;2023-03-21T14:29:21;99929.16;;;17.14;44.10
46347;BME280;32057;47.830;19.046;2023-03-21T14:31:47;99941.31;;;17.24;43.91
46347;BME280;32057;47.830;19.046;2023-03-21T14:34:14;99930.03;;;17.14;43.48
46347;BME280;32057;47.830;19.046;2023-03-21T14:36:41;99923.06;;;17.10;43.70
46347;BME280;32057;47.830;19.046;2023-03-21T14:39:22;99924.72;;;17.17;43.70